createdAt,value
2022-08-21T00:01:07.324Z,3.83
2022-08-21T00:03:35.474Z,3.92
2022-08-21T00:06:04.138Z,3.92
2022-08-21T00:08:32.220Z,5.40
2022-08-21T00:11:00.209Z,4.45
2022-08-21T00:13:28.495Z,4.88
2022-08-21T00:15:57.849Z,4.80
2022-08-21T00:18:25.894Z,4.40
2022-08-21T00:20:54.091Z,5.03
2022-08-21T00:23:22.340Z,4.80
2022-08-21T00:25:51.228Z,4.50
2022-08-21T00:28:19.383Z,4.20
2022-08-21T00:30:47.485Z,3.78
2022-08-21T00:33:16.824Z,4.32
2022-08-21T00:35:45.424Z,4.38
2022-08-21T00:38:13.725Z,4.13
2022-08-21T00:40:44.151Z,3.97
2022-08-21T00:43:14.852Z,4.32
2022-08-21T00:45:43.090Z,4.60
2022-08-21T00:48:11.038Z,4.93
2022-08-21T00:50:46.419Z,4.63
2022-08-21T00:53:15.603Z,4.10
2022-08-21T00:55:43.940Z,4.50
2022-08-21T00:58:14.569Z,4.95
2022-08-21T01:00:49.117Z,5.35
2022-08-21T01:03:23.671Z,5.22
2022-08-21T01:05:54.339Z,5.50
2022-08-21T01:08:22.942Z,5.30
2022-08-21T01:10:54.486Z,5.22
2022-08-21T01:13:27.636Z,5.75
2022-08-21T01:15:58.696Z,5.15
2022-08-21T01:18:26.628Z,5.13
2022-08-21T01:21:03.989Z,6.32
2022-08-21T01:23:32.075Z,5.45
2022-08-21T01:26:01.273Z,5.90
2022-08-21T01:28:33.540Z,6.15
2022-08-21T01:31:04.092Z,4.93
2022-08-21T01:33:32.236Z,5.22
2022-08-21T01:36:00.201Z,5.03
2022-08-21T01:38:29.755Z,5.22
2022-08-21T01:40:59.341Z,5.38
2022-08-21T01:43:34.775Z,5.32
2022-08-21T01:46:07.829Z,4.68
2022-08-21T01:48:35.841Z,5.30
2022-08-21T01:51:03.839Z,4.18
2022-08-21T01:53:34.956Z,4.50
2022-08-21T01:56:03.018Z,4.13
2022-08-21T01:58:31.049Z,3.85
2022-08-21T02:00:59.147Z,3.80
2022-08-21T02:03:35.232Z,3.60
2022-08-21T02:06:05.029Z,3.42
2022-08-21T02:08:34.835Z,3.45
2022-08-21T02:11:02.935Z,3.38
2022-08-21T02:13:30.975Z,3.83
2022-08-21T02:15:58.869Z,3.17
2022-08-21T02:18:26.797Z,3.05
2022-08-21T02:20:56.365Z,3.22
2022-08-21T02:23:26.705Z,3.55
2022-08-21T02:25:58.584Z,2.85
2022-08-21T02:28:27.643Z,2.88
2022-08-21T02:30:57.054Z,3.00
2022-08-21T02:33:25.466Z,3.10
2022-08-21T02:35:54.018Z,3.53
2022-08-21T02:38:24.377Z,3.92
2022-08-21T02:40:53.494Z,3.15
2022-08-21T02:43:25.133Z,3.30
2022-08-21T02:45:54.630Z,2.72
2022-08-21T02:48:25.538Z,2.80
2022-08-21T02:50:57.246Z,3.22
2022-08-21T02:53:26.393Z,3.28
2022-08-21T02:55:55.614Z,3.10
2022-08-21T02:58:28.577Z,3.28
2022-08-21T03:00:56.651Z,3.22
2022-08-21T03:03:24.734Z,3.13
2022-08-21T03:05:53.661Z,3.15
2022-08-21T03:08:22.200Z,2.97
2022-08-21T03:10:54.391Z,2.88
2022-08-21T03:13:24.527Z,3.58
2022-08-21T03:15:52.708Z,3.10
2022-08-21T03:18:20.980Z,2.75
2022-08-21T03:20:49.116Z,3.17
2022-08-21T03:23:19.631Z,3.05
2022-08-21T03:25:49.242Z,3.33
2022-08-21T03:28:19.946Z,2.95
2022-08-21T03:30:51.602Z,3.13
2022-08-21T03:33:23.344Z,2.83
2022-08-21T03:36:01.619Z,2.63
2022-08-21T03:38:31.573Z,3.13
2022-08-21T03:41:00.120Z,2.85
2022-08-21T03:43:32.305Z,2.60
2022-08-21T03:46:04.381Z,2.90
2022-08-21T03:48:32.891Z,3.05
2022-08-21T03:51:00.799Z,2.83
2022-08-21T03:53:29.139Z,2.58
2022-08-21T03:55:57.084Z,3.00
2022-08-21T03:58:27.171Z,2.78
2022-08-21T04:00:58.353Z,2.58
2022-08-21T04:03:28.989Z,2.38
2022-08-21T04:05:56.978Z,2.80
2022-08-21T04:08:25.068Z,3.10
2022-08-21T04:10:55.778Z,2.67
2022-08-21T04:13:24.013Z,2.88
2022-08-21T04:15:52.008Z,2.80
2022-08-21T04:18:20.192Z,2.85
2022-08-21T04:20:53.113Z,2.58
2022-08-21T04:23:24.520Z,2.90
2022-08-21T04:25:53.073Z,2.35
2022-08-21T04:28:21.076Z,2.55
2022-08-21T04:30:51.628Z,2.33
2022-08-21T04:33:19.657Z,2.47
2022-08-21T04:35:49.609Z,2.85
2022-08-21T04:38:17.644Z,2.90
2022-08-21T04:40:45.630Z,2.58
2022-08-21T04:43:13.925Z,2.05
2022-08-21T04:45:44.256Z,2.20
2022-08-21T04:48:14.471Z,2.17
2022-08-21T04:50:48.516Z,2.28
2022-08-21T04:53:22.408Z,2.75
2022-08-21T04:55:52.088Z,2.35
2022-08-21T04:58:22.476Z,2.00
2022-08-21T05:00:50.444Z,2.15
2022-08-21T05:03:19.609Z,2.63
2022-08-21T05:05:47.718Z,2.05
2022-08-21T05:08:21.360Z,2.13
2022-08-21T05:10:49.921Z,2.33
2022-08-21T05:13:19.274Z,2.63
2022-08-21T05:15:47.201Z,2.08
2022-08-21T05:18:15.359Z,2.15
2022-08-21T05:20:43.294Z,2.35
2022-08-21T05:23:12.908Z,1.92
2022-08-21T05:25:42.692Z,2.50
2022-08-21T05:28:11.119Z,2.35
2022-08-21T05:30:39.839Z,3.08
2022-08-21T05:33:08.995Z,2.03
2022-08-21T05:35:37.199Z,2.45
2022-08-21T05:38:06.037Z,2.40
2022-08-21T05:40:46.468Z,2.25
2022-08-21T05:43:14.801Z,2.63
2022-08-21T05:45:44.344Z,2.30
2022-08-21T05:48:15.084Z,2.22
2022-08-21T05:50:43.183Z,2.53
2022-08-21T05:53:12.242Z,4.32
2022-08-21T05:55:45.146Z,2.58
2022-08-21T05:58:15.817Z,3.08
2022-08-21T06:00:44.056Z,2.53
2022-08-21T06:03:17.959Z,2.28
2022-08-21T06:05:46.578Z,2.08
2022-08-21T06:08:14.837Z,1.92
2022-08-21T06:10:43.148Z,2.25
2022-08-21T06:13:11.597Z,2.10
2022-08-21T06:15:41.364Z,1.75
2022-08-21T06:18:09.721Z,2.03
2022-08-21T06:20:37.657Z,2.38
2022-08-21T06:23:05.840Z,2.00
2022-08-21T06:25:34.186Z,2.38
2022-08-21T06:28:06.814Z,2.25
2022-08-21T06:30:35.658Z,2.13
2022-08-21T06:33:07.230Z,1.90
2022-08-21T06:35:36.092Z,1.85
2022-08-21T06:38:04.069Z,1.70
2022-08-21T06:40:34.972Z,2.22
2022-08-21T06:43:08.801Z,2.70
2022-08-21T06:45:37.281Z,2.17
2022-08-21T06:48:07.862Z,2.50
2022-08-21T06:50:36.423Z,2.55
2022-08-21T06:53:07.630Z,2.30
2022-08-21T06:55:35.880Z,1.92
2022-08-21T06:58:04.655Z,2.28
2022-08-21T07:00:33.092Z,1.98
2022-08-21T07:03:01.285Z,1.58
2022-08-21T07:05:31.671Z,2.70
2022-08-21T07:08:00.130Z,2.15
2022-08-21T07:10:29.151Z,2.10
2022-08-21T07:13:01.305Z,2.50
2022-08-21T07:15:31.004Z,2.97
2022-08-21T07:17:59.675Z,2.42
2022-08-21T07:20:28.899Z,2.58
2022-08-21T07:22:59.507Z,3.35
2022-08-21T07:25:27.684Z,3.05
2022-08-21T07:27:56.240Z,2.65
2022-08-21T07:30:24.810Z,2.40
2022-08-21T07:32:53.104Z,2.15
2022-08-21T07:35:22.031Z,2.75
2022-08-21T07:37:50.880Z,2.38
2022-08-21T07:40:20.468Z,2.10
2022-08-21T07:42:51.102Z,2.22
2022-08-21T07:45:21.082Z,2.15
2022-08-21T07:47:51.070Z,2.40
2022-08-21T07:50:21.606Z,2.97
2022-08-21T07:52:49.744Z,1.83
2022-08-21T07:55:22.738Z,2.17
2022-08-21T07:57:51.516Z,1.90
2022-08-21T08:00:23.565Z,1.90
2022-08-21T08:02:54.140Z,1.67
2022-08-21T08:05:26.688Z,1.60
2022-08-21T08:07:55.059Z,1.87
2022-08-21T08:10:25.379Z,1.98
2022-08-21T08:12:55.596Z,1.70
2022-08-21T08:15:26.398Z,1.80
2022-08-21T08:17:55.728Z,2.22
2022-08-21T08:20:24.551Z,2.30
2022-08-21T08:22:52.829Z,2.17
2022-08-21T08:25:22.107Z,2.40
2022-08-21T08:27:51.838Z,2.22
2022-08-21T08:30:22.474Z,2.42
2022-08-21T08:32:50.560Z,2.28
2022-08-21T08:35:19.344Z,2.20
2022-08-21T08:37:52.541Z,1.83
2022-08-21T08:40:25.627Z,1.40
2022-08-21T08:42:54.916Z,1.40
2022-08-21T08:45:25.216Z,1.85
2022-08-21T08:47:59.084Z,1.83
2022-08-21T08:50:45.465Z,1.70
2022-08-21T08:53:20.964Z,1.55
2022-08-21T08:55:50.507Z,1.65
2022-08-21T08:58:24.495Z,1.27
2022-08-21T09:00:54.509Z,1.77
2022-08-21T09:03:24.354Z,1.65
2022-08-21T09:06:02.627Z,1.30
2022-08-21T09:08:50.219Z,1.65
2022-08-21T09:11:24.778Z,0.90
2022-08-21T09:14:04.743Z,1.40
2022-08-21T09:16:45.775Z,1.17
2022-08-21T09:19:29.365Z,1.08
2022-08-21T09:22:08.351Z,1.40
2022-08-21T09:24:50.033Z,1.33
2022-08-21T09:29:55.098Z,1.40
2022-08-21T09:32:37.097Z,1.48
2022-08-21T09:35:08.921Z,1.47
2022-08-21T09:37:47.629Z,1.40
2022-08-21T09:40:28.822Z,1.45
2022-08-21T09:42:59.822Z,1.13
2022-08-21T09:45:33.836Z,1.48
2022-08-21T09:48:14.146Z,1.13
2022-08-21T09:50:43.574Z,1.63
2022-08-21T09:53:19.780Z,1.20
2022-08-21T09:56:12.327Z,1.30
2022-08-21T09:58:43.038Z,1.48
2022-08-21T10:01:17.709Z,1.55
2022-08-21T10:03:46.231Z,1.88
2022-08-21T10:06:24.974Z,1.38
2022-08-21T10:08:53.120Z,1.80
2022-08-21T10:11:29.616Z,1.63
2022-08-21T10:14:05.913Z,2.03
2022-08-21T10:16:44.672Z,1.75
2022-08-21T10:19:23.660Z,1.75
2022-08-21T10:22:02.989Z,1.70
2022-08-21T10:24:35.051Z,1.30
2022-08-21T10:27:17.829Z,1.80
2022-08-21T10:29:52.196Z,1.50
2022-08-21T10:32:35.678Z,1.88
2022-08-21T10:37:49.531Z,1.83
2022-08-21T10:40:27.113Z,1.95
2022-08-21T10:43:06.219Z,1.65
2022-08-21T10:45:47.852Z,1.45
2022-08-21T10:48:26.855Z,2.15
2022-08-21T10:51:01.858Z,1.27
2022-08-21T10:53:49.144Z,1.50
2022-08-21T10:56:21.406Z,1.17
2022-08-21T10:59:03.131Z,1.70
2022-08-21T11:01:36.384Z,4.90
2022-08-21T11:04:18.232Z,1.70
2022-08-21T11:06:52.569Z,1.60
2022-08-21T11:09:24.980Z,1.60
2022-08-21T11:11:59.267Z,0.90
2022-08-21T11:14:49.796Z,1.35
2022-08-21T11:17:24.236Z,1.40
2022-08-21T11:20:00.456Z,1.10
2022-08-21T11:22:36.099Z,1.13
2022-08-21T11:25:09.791Z,1.23
2022-08-21T11:27:44.188Z,1.00
2022-08-21T11:30:13.662Z,3.63
2022-08-21T11:32:59.007Z,3.60
2022-08-21T11:35:37.868Z,1.17
2022-08-21T11:38:28.722Z,1.20
2022-08-21T11:41:20.033Z,1.48
2022-08-21T11:43:51.916Z,1.00
2022-08-21T11:46:30.128Z,1.08
2022-08-21T11:49:09.772Z,1.00
2022-08-21T11:51:44.540Z,1.27
2022-08-21T11:54:23.159Z,1.20
2022-08-21T11:56:57.074Z,1.38
2022-08-21T11:59:38.812Z,1.10
2022-08-21T12:02:14.728Z,1.48
2022-08-21T12:04:48.184Z,1.17
2022-08-21T12:07:30.378Z,0.90
2022-08-21T12:10:00.287Z,1.25
2022-08-21T12:12:30.453Z,1.08
2022-08-21T12:15:34.156Z,1.10
2022-08-21T12:18:04.665Z,1.45
2022-08-21T12:20:50.125Z,1.10
2022-08-21T12:23:30.542Z,1.42
2022-08-21T12:26:20.202Z,1.35
2022-08-21T12:28:48.954Z,0.90
2022-08-21T12:31:25.875Z,1.23
2022-08-21T12:33:59.188Z,1.10
2022-08-21T12:36:44.407Z,1.48
2022-08-21T12:39:23.808Z,1.00
2022-08-21T12:42:01.756Z,0.90
2022-08-21T12:44:37.289Z,1.08
2022-08-21T12:47:07.668Z,1.67
2022-08-21T12:49:38.573Z,1.48
2022-08-21T12:52:13.494Z,1.23
2022-08-21T12:54:45.097Z,1.38
2022-08-21T12:57:22.646Z,1.30
2022-08-21T12:59:55.548Z,1.13
2022-08-21T13:02:26.973Z,1.00
2022-08-21T13:04:57.573Z,1.50
2022-08-21T13:07:31.055Z,1.52
2022-08-21T13:10:06.321Z,1.10
2022-08-21T13:12:36.010Z,1.30
2022-08-21T13:15:08.717Z,1.58
2022-08-21T13:17:40.994Z,1.20
2022-08-21T13:20:20.332Z,1.10
2022-08-21T13:22:49.377Z,1.45
2022-08-21T13:25:21.753Z,1.17
2022-08-21T13:28:02.109Z,1.53
2022-08-21T13:30:31.678Z,1.27
2022-08-21T13:33:01.811Z,1.98
2022-08-21T13:35:36.575Z,1.50
2022-08-21T13:38:07.315Z,1.48
2022-08-21T13:40:51.352Z,1.50
2022-08-21T13:43:22.141Z,1.20
2022-08-21T13:45:52.679Z,1.77
2022-08-21T13:48:22.203Z,1.40
2022-08-21T13:50:50.299Z,1.75
2022-08-21T13:53:24.838Z,1.50
2022-08-21T13:55:58.651Z,1.85
2022-08-21T13:58:30.494Z,1.95
2022-08-21T14:01:01.214Z,1.30
2022-08-21T14:03:36.234Z,1.35
2022-08-21T14:06:12.309Z,1.23
2022-08-21T14:08:42.127Z,1.20
2022-08-21T14:11:14.538Z,1.75
2022-08-21T14:13:44.716Z,1.40
2022-08-21T14:16:17.284Z,1.40
2022-08-21T14:18:51.490Z,1.60
2022-08-21T14:21:30.233Z,1.92
2022-08-21T14:24:04.548Z,1.13
2022-08-21T14:26:37.029Z,1.15
2022-08-21T14:29:10.936Z,1.47
2022-08-21T14:31:40.334Z,1.60
2022-08-21T14:34:19.337Z,1.57
2022-08-21T14:36:49.030Z,1.83
2022-08-21T14:39:17.612Z,1.55
2022-08-21T14:41:49.555Z,1.40
2022-08-21T14:44:19.124Z,1.42
2022-08-21T14:46:56.113Z,1.60
2022-08-21T14:49:28.391Z,1.40
2022-08-21T14:51:58.478Z,1.30
2022-08-21T14:54:30.891Z,1.45
2022-08-21T14:57:05.862Z,1.50
2022-08-21T14:59:34.960Z,1.90
2022-08-21T15:02:05.058Z,1.75
2022-08-21T15:04:33.068Z,1.63
2022-08-21T15:07:01.007Z,1.58
2022-08-21T15:09:29.495Z,1.88
2022-08-21T15:12:00.132Z,1.67
2022-08-21T15:14:32.685Z,1.25
2022-08-21T15:17:00.739Z,1.80
2022-08-21T15:19:30.500Z,1.65
2022-08-21T15:21:59.224Z,1.80
2022-08-21T15:24:27.184Z,1.25
2022-08-21T15:26:57.013Z,1.40
2022-08-21T15:29:25.022Z,1.80
2022-08-21T15:32:05.033Z,1.70
2022-08-21T15:34:33.268Z,1.90
2022-08-21T15:37:01.242Z,1.90
2022-08-21T15:39:37.275Z,1.77
2022-08-21T15:42:11.101Z,1.70
2022-08-21T15:44:40.817Z,1.20
2022-08-21T15:47:21.616Z,1.60
2022-08-21T15:49:50.310Z,1.45
2022-08-21T15:52:20.606Z,1.40
2022-08-21T15:54:49.303Z,1.55
2022-08-21T15:57:19.670Z,1.77
2022-08-21T15:59:52.484Z,1.60
2022-08-21T16:02:25.813Z,1.58
2022-08-21T16:04:54.293Z,1.38
2022-08-21T16:07:22.458Z,1.83
2022-08-21T16:09:50.570Z,1.92
2022-08-21T16:12:23.405Z,1.70
2022-08-21T16:14:53.413Z,1.65
2022-08-21T16:17:26.894Z,1.35
2022-08-21T16:19:55.036Z,1.60
2022-08-21T16:22:22.931Z,1.67
2022-08-21T16:24:50.978Z,1.80
2022-08-21T16:27:19.510Z,1.35
2022-08-21T16:29:48.507Z,1.98
2022-08-21T16:32:17.733Z,1.48
2022-08-21T16:34:49.700Z,1.63
2022-08-21T16:37:23.996Z,1.38
2022-08-21T16:39:53.340Z,1.38
2022-08-21T16:42:25.892Z,1.45
2022-08-21T16:44:54.868Z,1.50
2022-08-21T16:47:26.326Z,2.05
2022-08-21T16:49:57.222Z,1.63
2022-08-21T16:52:25.282Z,1.52
2022-08-21T16:54:53.214Z,1.55
2022-08-21T16:57:21.516Z,1.35
2022-08-21T16:59:49.561Z,1.77
2022-08-21T17:02:26.695Z,1.92
2022-08-21T17:04:56.237Z,1.75
2022-08-21T17:07:24.560Z,1.83
2022-08-21T17:09:52.656Z,1.50
2022-08-21T17:12:20.722Z,1.48
2022-08-21T17:14:49.328Z,1.70
2022-08-21T17:17:17.932Z,2.17
2022-08-21T17:19:46.520Z,1.90
2022-08-21T17:22:15.826Z,1.83
2022-08-21T17:24:43.842Z,1.52
2022-08-21T17:27:12.854Z,1.52
2022-08-21T17:29:42.060Z,2.20
2022-08-21T17:32:12.842Z,1.40
2022-08-21T17:34:41.344Z,1.80
2022-08-21T17:37:09.273Z,1.42
2022-08-21T17:39:38.570Z,1.55
2022-08-21T17:42:10.656Z,1.60
2022-08-21T17:44:39.553Z,1.40
2022-08-21T17:47:09.016Z,1.63
2022-08-21T17:49:37.058Z,1.60
2022-08-21T17:52:07.634Z,1.50
2022-08-21T17:54:36.288Z,1.40
2022-08-21T17:57:06.755Z,1.80
2022-08-21T17:59:35.868Z,1.92
2022-08-21T18:02:09.789Z,1.55
2022-08-21T18:04:47.559Z,1.45
2022-08-21T18:07:32.099Z,1.80
2022-08-21T18:10:01.443Z,1.60
2022-08-21T18:12:31.492Z,1.95
2022-08-21T18:15:00.160Z,1.67
2022-08-21T18:17:29.623Z,1.52
2022-08-21T18:19:59.550Z,1.50
2022-08-21T18:22:27.601Z,2.03
2022-08-21T18:24:55.500Z,1.88
2022-08-21T18:27:26.754Z,1.95
2022-08-21T18:30:01.197Z,1.95
2022-08-21T18:32:31.860Z,1.85
2022-08-21T18:35:01.604Z,2.00
2022-08-21T18:37:29.552Z,2.22
2022-08-21T18:39:57.588Z,2.20
2022-08-21T18:42:28.521Z,1.70
2022-08-21T18:45:03.115Z,1.73
2022-08-21T18:47:35.345Z,2.13
2022-08-21T18:50:03.271Z,2.25
2022-08-21T18:52:32.536Z,2.00
2022-08-21T18:55:05.960Z,1.95
2022-08-21T18:57:41.541Z,2.03
2022-08-21T19:00:19.847Z,1.88
2022-08-21T19:02:49.270Z,1.80
2022-08-21T19:05:19.429Z,2.10
2022-08-21T19:07:48.841Z,2.20
2022-08-21T19:10:27.715Z,2.28
2022-08-21T19:12:59.369Z,2.30
2022-08-21T19:15:29.964Z,2.33
2022-08-21T19:17:59.572Z,2.15
2022-08-21T19:20:31.278Z,2.08
2022-08-21T19:22:59.260Z,2.75
2022-08-21T19:25:33.870Z,2.38
2022-08-21T19:28:22.209Z,2.65
2022-08-21T19:30:58.207Z,2.28
2022-08-21T19:33:33.653Z,2.50
2022-08-21T19:36:02.128Z,2.33
2022-08-21T19:38:30.096Z,2.40
2022-08-21T19:41:00.329Z,2.40
2022-08-21T19:43:29.283Z,2.20
2022-08-21T19:45:59.608Z,2.33
2022-08-21T19:48:28.647Z,2.22
2022-08-21T19:50:56.571Z,2.67
2022-08-21T19:53:24.488Z,2.90
2022-08-21T19:55:52.501Z,2.45
2022-08-21T19:58:36.049Z,2.90
2022-08-21T20:03:57.201Z,2.83
2022-08-21T20:06:26.361Z,2.72
2022-08-21T20:08:56.102Z,3.05
2022-08-21T20:11:31.368Z,2.53
2022-08-21T20:14:00.699Z,2.35
2022-08-21T20:16:31.151Z,2.33
2022-08-21T20:19:00.113Z,2.20
2022-08-21T20:21:28.277Z,2.03
2022-08-21T20:23:56.428Z,1.80
2022-08-21T20:26:25.033Z,2.40
2022-08-21T20:28:53.704Z,1.90
2022-08-21T20:31:23.515Z,1.75
2022-08-21T20:33:53.116Z,2.17
2022-08-21T20:36:22.723Z,2.13
2022-08-21T20:38:51.800Z,2.20
2022-08-21T20:41:30.439Z,1.80
2022-08-21T20:43:59.987Z,2.38
2022-08-21T20:46:29.329Z,2.17
2022-08-21T20:49:00.298Z,2.20
2022-08-21T20:51:33.106Z,2.40
2022-08-21T20:54:08.066Z,2.30
2022-08-21T20:56:46.462Z,2.53
2022-08-21T20:59:24.926Z,2.40
2022-08-21T21:01:57.166Z,2.40
2022-08-21T21:04:36.255Z,2.00
2022-08-21T21:07:09.060Z,2.30
2022-08-21T21:09:41.812Z,2.30
2022-08-21T21:12:16.757Z,2.90
2022-08-21T21:14:48.142Z,2.08
2022-08-21T21:17:28.508Z,2.83
2022-08-21T21:20:05.844Z,2.50
2022-08-21T21:22:38.296Z,2.35
2022-08-21T21:25:12.229Z,2.65
2022-08-21T21:30:37.814Z,2.47
2022-08-21T21:33:06.053Z,2.90
2022-08-21T21:35:41.695Z,2.60
2022-08-21T21:38:24.100Z,2.58
2022-08-21T21:41:07.413Z,2.25
2022-08-21T21:43:58.073Z,2.38
2022-08-21T21:46:34.452Z,2.47
2022-08-21T21:49:24.917Z,2.30
2022-08-21T21:52:05.745Z,2.20
2022-08-21T21:55:00.201Z,2.20
2022-08-21T21:57:49.496Z,2.53
2022-08-21T22:00:26.483Z,2.38
2022-08-21T22:03:07.903Z,2.90
2022-08-21T22:05:51.566Z,2.70
2022-08-21T22:08:30.929Z,2.78
2022-08-21T22:11:08.919Z,2.80
2022-08-21T22:14:00.255Z,2.13
2022-08-21T22:16:28.343Z,2.35
2022-08-21T22:19:01.488Z,2.30
2022-08-21T22:21:33.170Z,2.60
2022-08-21T22:24:11.532Z,2.85
2022-08-21T22:26:44.301Z,2.33
2022-08-21T22:29:16.712Z,2.60
2022-08-21T22:32:00.960Z,2.95
2022-08-21T22:34:33.160Z,2.17
2022-08-21T22:37:03.617Z,2.38
2022-08-21T22:39:39.284Z,2.45
2022-08-21T22:42:13.481Z,2.00
2022-08-21T22:44:51.670Z,2.65
2022-08-21T22:47:26.348Z,2.78
2022-08-21T22:49:59.630Z,2.58
2022-08-21T22:52:34.397Z,2.63
2022-08-21T22:55:19.273Z,2.77
2022-08-21T22:58:06.774Z,2.50
2022-08-21T23:00:44.471Z,2.80
2022-08-21T23:03:22.380Z,2.55
2022-08-21T23:05:52.149Z,2.95
2022-08-21T23:08:27.963Z,2.50
2022-08-21T23:11:03.224Z,2.92
2022-08-21T23:13:47.267Z,2.75
2022-08-21T23:16:36.604Z,2.67
2022-08-21T23:19:14.468Z,2.35
2022-08-21T23:21:54.727Z,3.25
2022-08-21T23:24:46.453Z,2.60
2022-08-21T23:27:29.769Z,2.63
2022-08-21T23:30:19.593Z,2.90
2022-08-21T23:33:09.793Z,3.45
2022-08-21T23:35:59.019Z,2.70
2022-08-21T23:38:41.097Z,3.08
2022-08-21T23:41:20.133Z,2.75
2022-08-21T23:44:17.101Z,3.25
2022-08-21T23:47:05.964Z,2.90
2022-08-21T23:49:49.333Z,2.90
2022-08-21T23:52:35.023Z,2.88
2022-08-21T23:55:19.249Z,2.80
2022-08-21T23:57:59.222Z,2.58
